createdAt,value
2022-09-29T00:01:21.179Z,8.15
2022-09-29T00:03:50.646Z,8.13
2022-09-29T00:06:19.249Z,8.10
2022-09-29T00:08:48.411Z,8.06
2022-09-29T00:11:19.216Z,8.04
2022-09-29T00:13:48.251Z,8.00
2022-09-29T00:16:17.111Z,7.98
2022-09-29T00:18:46.978Z,7.95
2022-09-29T00:21:22.299Z,7.94
2022-09-29T00:23:52.385Z,7.92
2022-09-29T00:26:24.738Z,7.86
2022-09-29T00:28:57.617Z,7.80
2022-09-29T00:31:29.749Z,7.73
2022-09-29T00:33:59.342Z,7.67
2022-09-29T00:36:30.760Z,7.62
2022-09-29T00:39:00.214Z,7.57
2022-09-29T00:41:35.290Z,7.54
2022-09-29T00:44:26.927Z,7.52
2022-09-29T00:47:16.574Z,7.52
2022-09-29T00:49:44.221Z,7.50
2022-09-29T00:52:15.821Z,7.46
2022-09-29T00:55:01.258Z,7.41
2022-09-29T00:57:36.530Z,7.37
2022-09-29T01:00:11.885Z,7.34
2022-09-29T01:02:47.806Z,7.31
2022-09-29T01:05:33.199Z,7.31
2022-09-29T01:08:23.151Z,7.32
2022-09-29T01:10:53.452Z,7.32
2022-09-29T01:13:23.370Z,7.31
2022-09-29T01:15:52.450Z,7.29
2022-09-29T01:18:21.959Z,7.25
2022-09-29T01:21:18.631Z,7.19
2022-09-29T01:24:05.329Z,7.14
2022-09-29T01:27:33.609Z,7.08
2022-09-29T01:30:46.644Z,7.07
2022-09-29T01:33:44.133Z,7.05
2022-09-29T01:36:24.517Z,7.02
2022-09-29T01:39:17.809Z,7.00
2022-09-29T01:41:56.596Z,6.97
2022-09-29T01:44:45.442Z,6.93
2022-09-29T01:47:20.143Z,6.92
2022-09-29T01:49:54.824Z,6.90
2022-09-29T01:52:27.771Z,6.89
2022-09-29T01:55:06.975Z,6.91
2022-09-29T01:58:00.363Z,6.91
2022-09-29T02:00:33.133Z,6.87
2022-09-29T02:03:11.402Z,6.82
2022-09-29T02:05:55.781Z,6.79
2022-09-29T02:08:36.180Z,6.77
2022-09-29T02:11:12.072Z,6.75
2022-09-29T02:13:42.084Z,6.76
2022-09-29T02:16:14.446Z,6.77
2022-09-29T02:18:58.258Z,6.79
2022-09-29T02:21:28.195Z,6.80
2022-09-29T02:23:57.514Z,6.80
2022-09-29T02:26:33.661Z,6.78
2022-09-29T02:29:05.117Z,6.74
2022-09-29T02:31:36.712Z,6.70
2022-09-29T02:34:11.810Z,6.66
2022-09-29T02:36:57.970Z,6.63
2022-09-29T02:39:44.480Z,6.58
2022-09-29T02:42:24.935Z,6.52
2022-09-29T02:45:11.273Z,6.48
2022-09-29T02:48:12.704Z,6.45
2022-09-29T02:50:59.399Z,6.42
2022-09-29T02:53:51.059Z,6.38
2022-09-29T02:56:28.684Z,6.30
2022-09-29T02:59:09.496Z,6.24
2022-09-29T03:01:49.338Z,6.22
2022-09-29T03:04:17.658Z,6.22
2022-09-29T03:06:46.630Z,6.21
2022-09-29T03:09:15.357Z,6.20
2022-09-29T03:11:43.040Z,6.19
2022-09-29T03:14:10.824Z,6.17
2022-09-29T03:16:39.333Z,6.15
2022-09-29T03:19:07.505Z,6.13
2022-09-29T03:21:35.355Z,6.11
2022-09-29T03:24:03.385Z,6.10
2022-09-29T03:26:31.275Z,6.12
2022-09-29T03:29:00.403Z,6.12
2022-09-29T03:31:28.216Z,6.15
2022-09-29T03:33:55.807Z,6.19
2022-09-29T03:36:23.457Z,6.24
2022-09-29T03:38:51.067Z,6.29
2022-09-29T03:41:19.794Z,6.36
2022-09-29T03:43:47.972Z,6.47
2022-09-29T03:46:15.604Z,6.56
2022-09-29T03:48:43.157Z,6.61
2022-09-29T03:51:10.952Z,6.63
2022-09-29T03:53:39.039Z,6.61
2022-09-29T03:56:07.316Z,6.57
2022-09-29T03:58:36.931Z,6.56
2022-09-29T04:01:05.252Z,6.59
2022-09-29T04:03:34.582Z,6.62
2022-09-29T04:06:02.142Z,6.66
2022-09-29T04:08:30.021Z,6.70
2022-09-29T04:10:58.639Z,6.76
2022-09-29T04:13:27.096Z,6.81
2022-09-29T04:16:05.820Z,6.87
2022-09-29T04:18:33.980Z,6.93
2022-09-29T04:21:06.809Z,6.97
2022-09-29T04:23:36.378Z,7.02
2022-09-29T04:26:04.699Z,7.06
2022-09-29T04:28:33.177Z,7.10
2022-09-29T04:31:01.793Z,7.16
2022-09-29T04:33:30.478Z,7.21
2022-09-29T04:35:59.148Z,7.28
2022-09-29T04:38:26.934Z,7.35
2022-09-29T04:40:54.518Z,7.42
2022-09-29T04:43:22.873Z,7.50
2022-09-29T04:45:50.362Z,7.57
2022-09-29T04:48:17.677Z,7.63
2022-09-29T04:50:45.036Z,7.64
2022-09-29T04:53:12.458Z,7.65
2022-09-29T04:55:40.253Z,7.61
2022-09-29T04:58:08.325Z,7.56
2022-09-29T05:00:36.101Z,7.52
2022-09-29T05:03:03.913Z,7.48
2022-09-29T05:05:31.522Z,7.40
2022-09-29T05:07:59.575Z,7.40
2022-09-29T05:10:26.834Z,7.44
2022-09-29T05:12:54.129Z,7.49
2022-09-29T05:15:25.735Z,7.54
2022-09-29T05:17:54.033Z,7.60
2022-09-29T05:20:21.582Z,7.69
2022-09-29T05:22:49.759Z,7.79
2022-09-29T05:25:17.421Z,7.90
2022-09-29T05:27:44.968Z,8.01
2022-09-29T05:30:12.635Z,8.12
2022-09-29T05:32:39.931Z,8.23
2022-09-29T05:35:07.974Z,8.36
2022-09-29T05:37:35.839Z,8.51
2022-09-29T05:40:04.424Z,8.66
2022-09-29T05:42:32.260Z,8.84
2022-09-29T05:44:59.831Z,9.04
2022-09-29T05:47:27.314Z,9.29
2022-09-29T05:49:54.638Z,9.47
2022-09-29T05:52:21.894Z,9.64
2022-09-29T05:54:51.089Z,9.80
2022-09-29T05:57:19.145Z,9.99
2022-09-29T05:59:46.315Z,10.20
2022-09-29T06:02:13.740Z,10.37
2022-09-29T06:04:41.130Z,10.52
2022-09-29T06:07:08.307Z,10.68
2022-09-29T06:09:38.326Z,10.79
2022-09-29T06:12:05.387Z,10.93
2022-09-29T06:14:32.765Z,11.02
2022-09-29T06:17:00.280Z,11.10
2022-09-29T06:19:28.037Z,11.21
2022-09-29T06:21:55.613Z,11.30
2022-09-29T06:24:24.110Z,11.37
2022-09-29T06:26:51.612Z,11.43
2022-09-29T06:29:19.456Z,11.56
2022-09-29T06:31:48.481Z,11.70
2022-09-29T06:34:15.930Z,11.87
2022-09-29T06:37:03.520Z,12.03
2022-09-29T06:39:30.902Z,12.27
2022-09-29T06:41:58.275Z,12.44
2022-09-29T06:44:30.532Z,12.63
2022-09-29T06:46:58.410Z,12.81
2022-09-29T06:49:26.160Z,12.99
2022-09-29T06:51:53.932Z,13.25
2022-09-29T06:54:26.376Z,13.49
2022-09-29T06:56:54.927Z,13.70
2022-09-29T06:59:22.854Z,13.95
2022-09-29T07:01:51.758Z,14.23
2022-09-29T07:04:21.284Z,14.48
2022-09-29T07:06:49.642Z,14.75
2022-09-29T07:09:18.858Z,14.97
2022-09-29T07:11:49.038Z,15.31
2022-09-29T07:14:19.525Z,15.74
2022-09-29T07:16:47.859Z,16.20
2022-09-29T07:19:17.718Z,16.65
2022-09-29T07:21:46.333Z,17.12
2022-09-29T07:24:13.855Z,17.72
2022-09-29T07:26:41.570Z,18.39
2022-09-29T07:29:14.939Z,19.09
2022-09-29T07:31:50.861Z,19.56
2022-09-29T07:34:21.594Z,20.09
2022-09-29T07:36:49.718Z,20.33
2022-09-29T07:39:19.662Z,20.62
2022-09-29T07:41:47.410Z,21.20
2022-09-29T07:44:15.024Z,21.69
2022-09-29T07:46:42.514Z,22.07
2022-09-29T07:49:09.974Z,22.53
2022-09-29T07:51:37.848Z,22.98
2022-09-29T07:54:05.503Z,23.42
2022-09-29T07:56:33.443Z,23.70
2022-09-29T07:59:02.058Z,23.65
2022-09-29T08:01:30.671Z,24.08
2022-09-29T08:03:58.105Z,24.42
2022-09-29T08:06:26.984Z,24.33
2022-09-29T08:09:03.208Z,24.68
2022-09-29T08:11:33.809Z,24.63
2022-09-29T08:14:01.321Z,24.72
2022-09-29T08:16:29.686Z,24.95
2022-09-29T08:18:57.793Z,25.03
2022-09-29T08:21:25.749Z,24.97
2022-09-29T08:23:53.159Z,24.82
2022-09-29T08:26:35.607Z,24.94
2022-09-29T08:29:10.298Z,25.05
2022-09-29T08:31:39.145Z,25.36
2022-09-29T08:34:07.005Z,25.38
2022-09-29T08:36:36.306Z,25.75
2022-09-29T08:39:04.373Z,25.80
2022-09-29T08:41:40.903Z,25.90
2022-09-29T08:44:37.835Z,25.94
2022-09-29T08:47:47.356Z,25.94
2022-09-29T08:50:35.726Z,26.00
2022-09-29T08:53:22.145Z,26.01
2022-09-29T08:56:01.965Z,26.41
2022-09-29T08:58:29.827Z,26.98
2022-09-29T09:01:28.080Z,27.10
2022-09-29T09:04:33.203Z,26.97
2022-09-29T09:07:45.292Z,26.52
2022-09-29T09:10:31.726Z,25.85
2022-09-29T09:13:17.621Z,25.42
2022-09-29T09:15:58.151Z,25.22
2022-09-29T09:18:47.275Z,25.36
2022-09-29T09:21:19.208Z,25.48
2022-09-29T09:24:00.111Z,25.73
2022-09-29T09:26:37.713Z,26.30
2022-09-29T09:29:25.014Z,26.91
2022-09-29T09:32:01.705Z,27.16
2022-09-29T09:35:00.640Z,27.31
2022-09-29T09:37:44.310Z,27.71
2022-09-29T09:40:20.303Z,27.93
2022-09-29T09:43:13.014Z,28.06
2022-09-29T09:45:59.004Z,28.36
2022-09-29T09:48:34.362Z,27.84
2022-09-29T09:51:13.727Z,27.60
2022-09-29T09:53:44.563Z,27.59
2022-09-29T09:56:55.654Z,27.55
2022-09-29T09:59:22.760Z,27.56
2022-09-29T10:01:49.978Z,27.93
2022-09-29T10:04:17.090Z,28.14
2022-09-29T10:06:44.763Z,28.13
2022-09-29T10:09:15.943Z,27.91
2022-09-29T10:11:44.021Z,27.73
2022-09-29T10:14:22.573Z,27.22
2022-09-29T10:16:56.789Z,26.91
2022-09-29T10:19:53.019Z,26.78
2022-09-29T10:25:13.560Z,26.22
2022-09-29T10:27:43.890Z,25.85
2022-09-29T10:30:24.429Z,25.95
2022-09-29T10:32:59.207Z,25.72
2022-09-29T10:35:33.073Z,25.22
2022-09-29T10:38:16.806Z,24.70
2022-09-29T10:41:04.050Z,24.20
2022-09-29T10:43:34.898Z,23.70
2022-09-29T10:46:02.414Z,23.60
2022-09-29T10:48:29.735Z,23.57
2022-09-29T10:51:04.923Z,23.28
2022-09-29T10:53:37.832Z,23.11
2022-09-29T10:56:31.335Z,23.19
2022-09-29T10:59:04.774Z,23.18
2022-09-29T11:01:49.863Z,23.08
2022-09-29T11:04:19.305Z,22.92
2022-09-29T11:06:47.337Z,22.80
2022-09-29T11:09:17.782Z,22.66
2022-09-29T11:11:48.208Z,22.63
2022-09-29T11:14:43.778Z,22.45
2022-09-29T11:17:41.192Z,22.29
2022-09-29T11:20:17.805Z,22.16
2022-09-29T11:22:54.068Z,22.08
2022-09-29T11:25:56.948Z,21.97
2022-09-29T11:29:02.708Z,21.90
2022-09-29T11:31:48.427Z,21.81
2022-09-29T11:34:55.552Z,21.79
2022-09-29T11:37:59.526Z,21.80
2022-09-29T11:40:51.659Z,21.83
2022-09-29T11:43:37.873Z,21.86
2022-09-29T11:46:33.371Z,21.78
2022-09-29T11:49:29.512Z,21.70
2022-09-29T11:52:33.996Z,21.57
2022-09-29T11:55:44.896Z,21.43
2022-09-29T11:58:45.719Z,21.26
2022-09-29T12:01:38.704Z,21.02
2022-09-29T12:04:33.803Z,20.62
2022-09-29T12:07:19.795Z,20.38
2022-09-29T12:09:58.610Z,20.21
2022-09-29T12:12:33.297Z,20.02
2022-09-29T12:15:15.969Z,19.77
2022-09-29T12:17:48.379Z,19.57
2022-09-29T12:20:33.513Z,19.42
2022-09-29T12:23:05.416Z,19.20
2022-09-29T12:25:45.745Z,19.00
2022-09-29T12:28:18.195Z,18.74
2022-09-29T12:30:54.441Z,18.33
2022-09-29T12:33:28.343Z,18.26
2022-09-29T12:36:33.498Z,17.79
2022-09-29T12:39:12.970Z,17.01
2022-09-29T12:41:48.507Z,16.33
2022-09-29T12:44:18.643Z,15.98
2022-09-29T12:47:30.606Z,15.73
2022-09-29T12:50:10.519Z,15.38
2022-09-29T12:52:51.009Z,15.25
2022-09-29T12:55:37.610Z,15.21
2022-09-29T12:58:15.783Z,15.07
2022-09-29T13:00:45.118Z,15.04
2022-09-29T13:03:34.011Z,14.97
2022-09-29T13:06:29.656Z,14.99
2022-09-29T13:09:14.900Z,15.00
2022-09-29T13:12:19.208Z,15.02
2022-09-29T13:14:52.525Z,15.04
2022-09-29T13:17:22.283Z,14.98
2022-09-29T13:20:15.420Z,14.95
2022-09-29T13:23:05.312Z,14.94
2022-09-29T13:26:06.757Z,14.96
2022-09-29T13:28:46.592Z,15.03
2022-09-29T13:31:22.022Z,15.09
2022-09-29T13:33:53.952Z,15.15
2022-09-29T13:36:36.056Z,15.20
2022-09-29T13:39:07.478Z,15.22
2022-09-29T13:41:39.652Z,15.24
2022-09-29T13:44:23.357Z,15.30
2022-09-29T13:46:52.177Z,15.34
2022-09-29T13:49:21.947Z,15.39
2022-09-29T13:51:53.661Z,15.42
2022-09-29T13:54:30.029Z,15.45
2022-09-29T13:57:12.297Z,15.49
2022-09-29T13:59:54.479Z,15.49
2022-09-29T14:02:31.163Z,15.48
2022-09-29T14:04:58.816Z,15.45
2022-09-29T14:07:49.502Z,15.44
2022-09-29T14:10:25.603Z,15.46
2022-09-29T14:13:01.607Z,15.50
2022-09-29T14:15:34.766Z,15.55
2022-09-29T14:18:07.722Z,15.62
2022-09-29T14:20:35.112Z,15.70
2022-09-29T14:23:07.751Z,15.82
2022-09-29T14:25:40.505Z,16.01
2022-09-29T14:28:22.195Z,16.22
2022-09-29T14:30:55.063Z,16.47
2022-09-29T14:33:29.269Z,16.66
2022-09-29T14:35:59.085Z,16.80
2022-09-29T14:38:57.884Z,16.87
2022-09-29T14:41:40.939Z,16.91
2022-09-29T14:44:09.750Z,16.93
2022-09-29T14:47:21.523Z,16.93
2022-09-29T14:50:14.626Z,16.97
2022-09-29T14:52:56.929Z,17.07
2022-09-29T14:55:33.039Z,17.18
2022-09-29T14:58:16.888Z,17.11
2022-09-29T15:00:46.493Z,17.18
2022-09-29T15:03:36.834Z,17.86
2022-09-29T15:06:18.976Z,18.78
2022-09-29T15:09:00.854Z,19.57
2022-09-29T15:11:42.935Z,20.22
2022-09-29T15:14:38.218Z,20.64
2022-09-29T15:17:23.911Z,20.87
2022-09-29T15:19:56.017Z,20.93
2022-09-29T15:22:44.310Z,20.71
2022-09-29T15:25:29.218Z,20.13
2022-09-29T15:28:09.523Z,19.39
2022-09-29T15:30:37.777Z,18.74
2022-09-29T15:33:31.173Z,18.24
2022-09-29T15:36:17.110Z,17.91
2022-09-29T15:38:44.434Z,17.59
2022-09-29T15:41:12.640Z,17.29
2022-09-29T15:43:42.027Z,17.01
2022-09-29T15:46:19.043Z,16.76
2022-09-29T15:49:22.052Z,16.49
2022-09-29T15:52:02.629Z,16.23
2022-09-29T15:54:35.632Z,16.06
2022-09-29T15:57:21.977Z,15.90
2022-09-29T15:59:53.774Z,15.73
2022-09-29T16:02:35.822Z,15.58
2022-09-29T16:05:06.900Z,15.39
2022-09-29T16:07:37.945Z,15.22
2022-09-29T16:10:15.276Z,15.06
2022-09-29T16:13:08.318Z,14.90
2022-09-29T16:15:42.233Z,14.72
2022-09-29T16:18:23.068Z,14.61
2022-09-29T16:20:54.330Z,14.49
2022-09-29T16:23:34.775Z,14.40
2022-09-29T16:26:07.876Z,14.32
2022-09-29T16:28:37.762Z,14.24
2022-09-29T16:31:18.085Z,14.17
2022-09-29T16:33:54.222Z,14.07
2022-09-29T16:36:27.230Z,13.99
2022-09-29T16:38:55.117Z,13.92
2022-09-29T16:41:36.349Z,13.86
2022-09-29T16:44:18.143Z,13.78
2022-09-29T16:46:53.511Z,13.69
2022-09-29T16:49:28.144Z,13.60
2022-09-29T16:52:10.498Z,13.53
2022-09-29T16:54:44.515Z,13.46
2022-09-29T16:57:29.673Z,13.39
2022-09-29T17:00:06.655Z,13.31
2022-09-29T17:02:33.909Z,13.24
2022-09-29T17:05:04.605Z,13.16
2022-09-29T17:07:32.313Z,13.08
2022-09-29T17:10:00.632Z,13.01
2022-09-29T17:12:29.677Z,12.94
2022-09-29T17:14:57.372Z,12.89
2022-09-29T17:17:26.886Z,12.84
2022-09-29T17:19:58.215Z,12.81
2022-09-29T17:22:29.981Z,12.79
2022-09-29T17:24:58.338Z,12.74
2022-09-29T17:27:44.883Z,12.70
2022-09-29T17:30:17.348Z,12.66
2022-09-29T17:32:46.311Z,12.61
2022-09-29T17:35:15.202Z,12.58
2022-09-29T17:37:46.289Z,12.57
2022-09-29T17:40:23.820Z,12.54
2022-09-29T17:42:51.607Z,12.49
2022-09-29T17:45:20.620Z,12.44
2022-09-29T17:47:49.495Z,12.39
2022-09-29T17:50:36.595Z,12.35
2022-09-29T17:53:04.845Z,12.34
2022-09-29T17:55:33.490Z,12.30
2022-09-29T17:58:00.760Z,12.27
2022-09-29T18:00:32.607Z,12.25
2022-09-29T18:03:02.430Z,12.25
2022-09-29T18:05:33.046Z,12.25
2022-09-29T18:08:03.244Z,12.23
2022-09-29T18:10:34.381Z,12.19
2022-09-29T18:13:01.659Z,12.17
2022-09-29T18:15:28.852Z,12.14
2022-09-29T18:18:02.252Z,12.12
2022-09-29T18:20:31.548Z,12.11
2022-09-29T18:23:01.520Z,12.11
2022-09-29T18:25:30.947Z,12.10
2022-09-29T18:27:58.453Z,12.09
2022-09-29T18:30:31.815Z,12.07
2022-09-29T18:32:59.698Z,12.04
2022-09-29T18:35:30.637Z,12.01
2022-09-29T18:37:59.186Z,11.97
2022-09-29T18:40:30.564Z,11.94
2022-09-29T18:42:58.480Z,11.92
2022-09-29T18:45:29.932Z,11.93
2022-09-29T18:48:02.994Z,11.94
2022-09-29T18:50:43.483Z,11.92
2022-09-29T18:53:12.334Z,11.90
2022-09-29T18:55:42.602Z,11.90
2022-09-29T18:58:13.977Z,11.90
2022-09-29T19:00:46.066Z,11.89
2022-09-29T19:03:13.232Z,11.88
2022-09-29T19:05:42.213Z,11.86
2022-09-29T19:08:12.412Z,11.85
2022-09-29T19:10:41.803Z,11.83
2022-09-29T19:13:14.452Z,11.82
2022-09-29T19:15:44.030Z,11.79
2022-09-29T19:18:24.370Z,11.73
2022-09-29T19:20:54.995Z,11.67
2022-09-29T19:23:23.467Z,11.62
2022-09-29T19:25:52.226Z,11.57
2022-09-29T19:28:22.002Z,11.52
2022-09-29T19:30:49.980Z,11.48
2022-09-29T19:33:20.318Z,11.44
2022-09-29T19:35:51.700Z,11.41
2022-09-29T19:38:19.478Z,11.39
2022-09-29T19:40:47.759Z,11.38
2022-09-29T19:43:15.763Z,11.37
2022-09-29T19:45:44.312Z,11.37
2022-09-29T19:48:17.852Z,11.37
2022-09-29T19:51:04.768Z,11.35
2022-09-29T19:53:35.027Z,11.35
2022-09-29T19:56:07.958Z,11.34
2022-09-29T19:58:38.045Z,11.31
2022-09-29T20:01:07.259Z,11.30
2022-09-29T20:03:34.413Z,11.29
2022-09-29T20:06:06.075Z,11.30
2022-09-29T20:08:34.322Z,11.31
2022-09-29T20:11:10.824Z,11.30
2022-09-29T20:13:38.823Z,11.32
2022-09-29T20:16:10.421Z,11.33
2022-09-29T20:18:38.067Z,11.35
2022-09-29T20:21:10.041Z,11.36
2022-09-29T20:23:40.871Z,11.36
2022-09-29T20:26:08.735Z,11.36
2022-09-29T20:28:37.444Z,11.35
2022-09-29T20:31:07.121Z,11.32
2022-09-29T20:33:36.169Z,11.31
2022-09-29T20:36:04.901Z,11.29
2022-09-29T20:38:35.153Z,11.27
2022-09-29T20:41:03.772Z,11.26
2022-09-29T20:43:34.112Z,11.24
2022-09-29T20:46:05.731Z,11.23
2022-09-29T20:48:35.721Z,11.21
2022-09-29T20:51:05.457Z,11.20
2022-09-29T20:53:38.882Z,11.20
2022-09-29T20:56:08.778Z,11.19
2022-09-29T20:58:36.076Z,11.16
2022-09-29T21:01:16.008Z,11.12
2022-09-29T21:03:43.753Z,11.08
2022-09-29T21:06:11.724Z,11.05
2022-09-29T21:08:41.161Z,11.04
2022-09-29T21:11:09.091Z,11.01
2022-09-29T21:13:36.408Z,11.00
2022-09-29T21:16:04.899Z,10.97
2022-09-29T21:18:33.806Z,10.93
2022-09-29T21:21:04.179Z,10.88
2022-09-29T21:23:33.546Z,10.84
2022-09-29T21:26:04.285Z,10.81
2022-09-29T21:28:34.843Z,10.80
2022-09-29T21:31:02.326Z,10.80
2022-09-29T21:33:30.343Z,10.79
2022-09-29T21:35:59.572Z,10.75
2022-09-29T21:38:30.071Z,10.70
2022-09-29T21:41:20.315Z,10.66
2022-09-29T21:43:49.560Z,10.56
2022-09-29T21:46:20.326Z,10.47
2022-09-29T21:48:55.246Z,10.41
2022-09-29T21:51:27.859Z,10.37
2022-09-29T21:53:58.192Z,10.33
2022-09-29T21:56:28.498Z,10.32
2022-09-29T21:58:56.752Z,10.30
2022-09-29T22:01:24.920Z,10.29
2022-09-29T22:03:55.429Z,10.27
2022-09-29T22:06:26.866Z,10.25
2022-09-29T22:08:56.148Z,10.24
2022-09-29T22:11:27.467Z,10.24
2022-09-29T22:13:58.005Z,10.28
2022-09-29T22:16:28.792Z,10.29
2022-09-29T22:19:22.357Z,10.31
2022-09-29T22:21:47.129Z,10.30
2022-09-29T22:24:15.035Z,10.31
2022-09-29T22:26:50.634Z,10.28
2022-09-29T22:29:21.781Z,10.24
2022-09-29T22:31:50.029Z,10.17
2022-09-29T22:34:18.684Z,10.11
2022-09-29T22:36:46.697Z,10.07
2022-09-29T22:39:14.125Z,10.07
2022-09-29T22:41:42.830Z,10.14
2022-09-29T22:44:15.900Z,10.21
2022-09-29T22:46:49.938Z,10.25
2022-09-29T22:49:18.235Z,10.26
2022-09-29T22:51:46.510Z,10.26
2022-09-29T22:54:14.180Z,10.27
2022-09-29T22:56:44.642Z,10.24
2022-09-29T22:59:13.255Z,10.15
2022-09-29T23:01:41.222Z,10.10
2022-09-29T23:04:09.231Z,10.08
2022-09-29T23:06:37.624Z,10.07
2022-09-29T23:09:06.213Z,10.06
2022-09-29T23:11:34.405Z,10.04
2022-09-29T23:14:03.595Z,10.01
2022-09-29T23:16:31.908Z,9.98
2022-09-29T23:19:01.178Z,9.94
2022-09-29T23:21:29.325Z,9.91
2022-09-29T23:24:01.697Z,9.90
2022-09-29T23:26:32.958Z,9.92
2022-09-29T23:29:01.089Z,9.95
2022-09-29T23:31:29.248Z,9.96
2022-09-29T23:34:00.818Z,9.93
2022-09-29T23:36:31.663Z,9.88
2022-09-29T23:39:13.501Z,9.83
2022-09-29T23:41:47.469Z,9.77
2022-09-29T23:44:20.487Z,9.69
2022-09-29T23:46:49.211Z,9.61
2022-09-29T23:49:22.159Z,9.51
2022-09-29T23:51:57.678Z,9.41
2022-09-29T23:54:27.876Z,9.33
2022-09-29T23:56:57.477Z,9.26
2022-09-29T23:59:26.328Z,9.22
